sensor_id;sensor_type;location;lat;lon;timestamp;temperature;humidity
68943;DHT22;60852;52.190;4.422;2023-12-28T00:01:50;11.77;82.71
68943;DHT22;60852;52.190;4.422;2023-12-28T00:04:16;11.74;82.51
68943;DHT22;60852;52.190;4.422;2023-12-28T00:06:42;11.77;82.37
68943;DHT22;60852;52.190;4.422;2023-12-28T00:09:07;11.84;82.21
68943;DHT22;60852;52.190;4.422;2023-12-28T00:11:33;11.84;82.23
68943;DHT22;60852;52.190;4.422;2023-12-28T00:13:59;11.85;82.17
68943;DHT22;60852;52.190;4.422;2023-12-28T00:16:24;11.87;82.06
68943;DHT22;60852;52.190;4.422;2023-12-28T00:18:50;11.90;81.97
68943;DHT22;60852;52.190;4.422;2023-12-28T00:21:15;11.88;81.97
68943;DHT22;60852;52.190;4.422;2023-12-28T00:23:41;11.85;81.89
68943;DHT22;60852;52.190;4.422;2023-12-28T00:26:06;11.81;81.71
68943;DHT22;60852;52.190;4.422;2023-12-28T00:28:31;11.85;81.56
68943;DHT22;60852;52.190;4.422;2023-12-28T00:30:57;11.88;81.33
68943;DHT22;60852;52.190;4.422;2023-12-28T00:33:22;11.85;81.43
68943;DHT22;60852;52.190;4.422;2023-12-28T00:35:48;11.81;81.27
68943;DHT22;60852;52.190;4.422;2023-12-28T00:38:13;11.84;81.16
68943;DHT22;60852;52.190;4.422;2023-12-28T00:40:38;11.87;81.05
68943;DHT22;60852;52.190;4.422;2023-12-28T00:43:04;11.88;81.09
68943;DHT22;60852;52.190;4.422;2023-12-28T00:45:29;11.82;81.06
68943;DHT22;60852;52.190;4.422;2023-12-28T00:47:55;11.82;81.01
68943;DHT22;60852;52.190;4.422;2023-12-28T00:50:22;11.80;81.23
68943;DHT22;60852;52.190;4.422;2023-12-28T00:52:47;11.81;81.12
68943;DHT22;60852;52.190;4.422;2023-12-28T00:55:13;11.82;81.15
68943;DHT22;60852;52.190;4.422;2023-12-28T00:57:39;11.84;80.96
68943;DHT22;60852;52.190;4.422;2023-12-28T01:00:04;11.84;80.96
68943;DHT22;60852;52.190;4.422;2023-12-28T01:02:30;11.82;80.71
68943;DHT22;60852;52.190;4.422;2023-12-28T01:04:55;11.81;80.77
68943;DHT22;60852;52.190;4.422;2023-12-28T01:07:22;11.77;80.70
68943;DHT22;60852;52.190;4.422;2023-12-28T01:09:47;11.81;80.51
68943;DHT22;60852;52.190;4.422;2023-12-28T01:12:13;11.75;80.52
68943;DHT22;60852;52.190;4.422;2023-12-28T01:14:38;11.70;80.73
68943;DHT22;60852;52.190;4.422;2023-12-28T01:17:03;11.74;80.72
68943;DHT22;60852;52.190;4.422;2023-12-28T01:19:29;11.70;80.79
68943;DHT22;60852;52.190;4.422;2023-12-28T01:21:54;11.63;81.09
68943;DHT22;60852;52.190;4.422;2023-12-28T01:24:20;11.51;81.42
68943;DHT22;60852;52.190;4.422;2023-12-28T01:26:45;11.51;81.61
68943;DHT22;60852;52.190;4.422;2023-12-28T01:29:11;11.57;81.46
68943;DHT22;60852;52.190;4.422;2023-12-28T01:31:36;11.63;81.07
68943;DHT22;60852;52.190;4.422;2023-12-28T01:34:04;11.60;81.06
68943;DHT22;60852;52.190;4.422;2023-12-28T01:36:29;11.53;81.22
68943;DHT22;60852;52.190;4.422;2023-12-28T01:38:56;11.49;81.38
68943;DHT22;60852;52.190;4.422;2023-12-28T01:41:21;11.47;81.26
68943;DHT22;60852;52.190;4.422;2023-12-28T01:43:47;11.51;81.12
68943;DHT22;60852;52.190;4.422;2023-12-28T01:46:17;11.49;80.90
68943;DHT22;60852;52.190;4.422;2023-12-28T01:48:49;11.43;81.19
68943;DHT22;60852;52.190;4.422;2023-12-28T01:51:15;11.49;80.77
68943;DHT22;60852;52.190;4.422;2023-12-28T01:53:42;11.43;80.93
68943;DHT22;60852;52.190;4.422;2023-12-28T01:56:09;11.49;80.43
68943;DHT22;60852;52.190;4.422;2023-12-28T01:58:37;11.51;80.14
68943;DHT22;60852;52.190;4.422;2023-12-28T02:01:05;11.56;79.82
68943;DHT22;60852;52.190;4.422;2023-12-28T02:03:31;11.60;79.71
68943;DHT22;60852;52.190;4.422;2023-12-28T02:05:57;11.64;79.49
68943;DHT22;60852;52.190;4.422;2023-12-28T02:08:22;11.66;79.33
68943;DHT22;60852;52.190;4.422;2023-12-28T02:10:48;11.68;79.20
68943;DHT22;60852;52.190;4.422;2023-12-28T02:13:14;11.70;78.75
68943;DHT22;60852;52.190;4.422;2023-12-28T02:15:39;11.71;78.54
68943;DHT22;60852;52.190;4.422;2023-12-28T02:18:21;11.74;78.16
68943;DHT22;60852;52.190;4.422;2023-12-28T02:20:49;11.70;77.96
68943;DHT22;60852;52.190;4.422;2023-12-28T02:23:16;11.74;77.87
68943;DHT22;60852;52.190;4.422;2023-12-28T02:25:41;11.71;77.77
68943;DHT22;60852;52.190;4.422;2023-12-28T02:28:07;11.80;77.48
68943;DHT22;60852;52.190;4.422;2023-12-28T02:30:33;11.77;77.37
68943;DHT22;60852;52.190;4.422;2023-12-28T02:33:12;11.78;77.24
68943;DHT22;60852;52.190;4.422;2023-12-28T02:35:44;11.82;77.02
68943;DHT22;60852;52.190;4.422;2023-12-28T02:38:13;11.84;76.80
68943;DHT22;60852;52.190;4.422;2023-12-28T02:40:42;11.82;76.81
68943;DHT22;60852;52.190;4.422;2023-12-28T02:43:12;11.78;76.80
68943;DHT22;60852;52.190;4.422;2023-12-28T02:45:39;11.85;76.57
68943;DHT22;60852;52.190;4.422;2023-12-28T02:48:05;11.95;76.33
68943;DHT22;60852;52.190;4.422;2023-12-28T02:50:31;11.95;76.23
68943;DHT22;60852;52.190;4.422;2023-12-28T02:52:58;12.04;76.00
68943;DHT22;60852;52.190;4.422;2023-12-28T02:55:23;11.92;76.13
68943;DHT22;60852;52.190;4.422;2023-12-28T02:57:50;11.92;76.21
68943;DHT22;60852;52.190;4.422;2023-12-28T03:00:16;11.92;76.20
68943;DHT22;60852;52.190;4.422;2023-12-28T03:02:42;11.88;76.14
68943;DHT22;60852;52.190;4.422;2023-12-28T03:05:07;11.94;76.11
68943;DHT22;60852;52.190;4.422;2023-12-28T03:07:34;11.92;75.98
68943;DHT22;60852;52.190;4.422;2023-12-28T03:10:00;12.01;76.06
68943;DHT22;60852;52.190;4.422;2023-12-28T03:12:26;11.97;76.10
68943;DHT22;60852;52.190;4.422;2023-12-28T03:14:52;11.98;75.98
68943;DHT22;60852;52.190;4.422;2023-12-28T03:17:17;11.94;75.84
68943;DHT22;60852;52.190;4.422;2023-12-28T03:19:43;11.98;75.54
68943;DHT22;60852;52.190;4.422;2023-12-28T03:22:08;12.02;75.56
68943;DHT22;60852;52.190;4.422;2023-12-28T03:24:33;11.99;75.76
68943;DHT22;60852;52.190;4.422;2023-12-28T03:26:59;11.99;75.83
68943;DHT22;60852;52.190;4.422;2023-12-28T03:29:24;11.94;75.80
68943;DHT22;60852;52.190;4.422;2023-12-28T03:31:50;11.92;75.88
68943;DHT22;60852;52.190;4.422;2023-12-28T03:34:16;11.90;75.93
68943;DHT22;60852;52.190;4.422;2023-12-28T03:36:42;11.97;75.68
68943;DHT22;60852;52.190;4.422;2023-12-28T03:39:08;11.92;75.75
68943;DHT22;60852;52.190;4.422;2023-12-28T03:41:33;11.80;76.11
68943;DHT22;60852;52.190;4.422;2023-12-28T03:43:58;11.78;76.00
68943;DHT22;60852;52.190;4.422;2023-12-28T03:46:24;11.81;75.99
68943;DHT22;60852;52.190;4.422;2023-12-28T03:48:49;11.85;75.97
68943;DHT22;60852;52.190;4.422;2023-12-28T03:51:16;11.91;75.86
68943;DHT22;60852;52.190;4.422;2023-12-28T03:53:42;11.97;75.80
68943;DHT22;60852;52.190;4.422;2023-12-28T03:56:08;11.85;75.63
68943;DHT22;60852;52.190;4.422;2023-12-28T03:58:42;11.92;75.62
68943;DHT22;60852;52.190;4.422;2023-12-28T04:01:08;11.97;75.56
68943;DHT22;60852;52.190;4.422;2023-12-28T04:03:37;11.94;75.54
68943;DHT22;60852;52.190;4.422;2023-12-28T04:06:03;11.95;75.79
68943;DHT22;60852;52.190;4.422;2023-12-28T04:08:29;11.97;75.45
68943;DHT22;60852;52.190;4.422;2023-12-28T04:10:55;11.94;75.53
68943;DHT22;60852;52.190;4.422;2023-12-28T04:13:20;11.95;75.34
68943;DHT22;60852;52.190;4.422;2023-12-28T04:15:45;11.97;75.32
68943;DHT22;60852;52.190;4.422;2023-12-28T04:18:11;11.98;75.36
68943;DHT22;60852;52.190;4.422;2023-12-28T04:20:36;11.99;75.20
68943;DHT22;60852;52.190;4.422;2023-12-28T04:23:02;12.01;75.23
68943;DHT22;60852;52.190;4.422;2023-12-28T04:25:30;11.98;75.19
68943;DHT22;60852;52.190;4.422;2023-12-28T04:27:56;12.02;75.06
68943;DHT22;60852;52.190;4.422;2023-12-28T04:30:22;12.02;75.01
68943;DHT22;60852;52.190;4.422;2023-12-28T04:32:47;12.02;75.10
68943;DHT22;60852;52.190;4.422;2023-12-28T04:35:13;11.98;75.17
68943;DHT22;60852;52.190;4.422;2023-12-28T04:37:38;12.04;74.96
68943;DHT22;60852;52.190;4.422;2023-12-28T04:40:04;11.95;75.11
68943;DHT22;60852;52.190;4.422;2023-12-28T04:42:29;11.99;74.93
68943;DHT22;60852;52.190;4.422;2023-12-28T04:44:55;12.05;74.83
68943;DHT22;60852;52.190;4.422;2023-12-28T04:47:20;12.02;74.96
68943;DHT22;60852;52.190;4.422;2023-12-28T04:49:45;12.04;74.96
68943;DHT22;60852;52.190;4.422;2023-12-28T04:52:11;12.11;74.67
68943;DHT22;60852;52.190;4.422;2023-12-28T04:54:40;12.15;74.30
68943;DHT22;60852;52.190;4.422;2023-12-28T04:57:05;12.15;74.46
68943;DHT22;60852;52.190;4.422;2023-12-28T04:59:31;12.09;74.61
68943;DHT22;60852;52.190;4.422;2023-12-28T05:01:56;12.06;74.56
68943;DHT22;60852;52.190;4.422;2023-12-28T05:04:21;12.05;74.57
68943;DHT22;60852;52.190;4.422;2023-12-28T05:06:47;12.02;74.74
68943;DHT22;60852;52.190;4.422;2023-12-28T05:09:12;12.04;74.81
68943;DHT22;60852;52.190;4.422;2023-12-28T05:11:38;12.09;74.73
68943;DHT22;60852;52.190;4.422;2023-12-28T05:14:03;12.06;74.74
68943;DHT22;60852;52.190;4.422;2023-12-28T05:16:28;12.04;74.67
68943;DHT22;60852;52.190;4.422;2023-12-28T05:18:54;12.06;74.68
68943;DHT22;60852;52.190;4.422;2023-12-28T05:21:19;11.99;74.85
68943;DHT22;60852;52.190;4.422;2023-12-28T05:23:46;12.04;74.63
68943;DHT22;60852;52.190;4.422;2023-12-28T05:26:11;12.08;74.72
68943;DHT22;60852;52.190;4.422;2023-12-28T05:28:37;11.99;74.72
68943;DHT22;60852;52.190;4.422;2023-12-28T05:31:02;12.09;74.66
68943;DHT22;60852;52.190;4.422;2023-12-28T05:33:28;12.14;74.63
68943;DHT22;60852;52.190;4.422;2023-12-28T05:35:53;12.17;74.49
68943;DHT22;60852;52.190;4.422;2023-12-28T05:38:19;12.15;74.43
68943;DHT22;60852;52.190;4.422;2023-12-28T05:40:44;12.04;74.63
68943;DHT22;60852;52.190;4.422;2023-12-28T05:43:10;12.06;74.60
68943;DHT22;60852;52.190;4.422;2023-12-28T05:45:36;12.08;74.75
68943;DHT22;60852;52.190;4.422;2023-12-28T05:48:01;12.06;74.67
68943;DHT22;60852;52.190;4.422;2023-12-28T05:50:27;12.08;74.57
68943;DHT22;60852;52.190;4.422;2023-12-28T05:52:52;12.08;74.61
68943;DHT22;60852;52.190;4.422;2023-12-28T05:55:18;12.09;74.69
68943;DHT22;60852;52.190;4.422;2023-12-28T05:57:43;12.18;74.52
68943;DHT22;60852;52.190;4.422;2023-12-28T06:00:09;12.15;74.42
68943;DHT22;60852;52.190;4.422;2023-12-28T06:02:35;12.15;74.42
68943;DHT22;60852;52.190;4.422;2023-12-28T06:05:01;12.15;74.50
68943;DHT22;60852;52.190;4.422;2023-12-28T06:07:26;12.21;74.56
68943;DHT22;60852;52.190;4.422;2023-12-28T06:09:52;12.21;74.52
68943;DHT22;60852;52.190;4.422;2023-12-28T06:12:17;12.14;74.78
68943;DHT22;60852;52.190;4.422;2023-12-28T06:14:42;12.11;74.94
68943;DHT22;60852;52.190;4.422;2023-12-28T06:17:08;12.14;74.94
68943;DHT22;60852;52.190;4.422;2023-12-28T06:19:33;12.06;75.08
68943;DHT22;60852;52.190;4.422;2023-12-28T06:21:59;12.12;75.03
68943;DHT22;60852;52.190;4.422;2023-12-28T06:24:24;12.05;75.21
68943;DHT22;60852;52.190;4.422;2023-12-28T06:26:50;12.11;75.09
68943;DHT22;60852;52.190;4.422;2023-12-28T06:29:16;12.09;75.05
68943;DHT22;60852;52.190;4.422;2023-12-28T06:31:41;12.12;75.08
68943;DHT22;60852;52.190;4.422;2023-12-28T06:34:07;12.17;74.96
68943;DHT22;60852;52.190;4.422;2023-12-28T06:36:33;12.18;74.85
68943;DHT22;60852;52.190;4.422;2023-12-28T06:38:58;12.21;74.85
68943;DHT22;60852;52.190;4.422;2023-12-28T06:41:25;12.17;75.08
68943;DHT22;60852;52.190;4.422;2023-12-28T06:43:51;12.14;75.07
68943;DHT22;60852;52.190;4.422;2023-12-28T06:46:17;12.11;75.16
68943;DHT22;60852;52.190;4.422;2023-12-28T06:48:42;12.14;75.19
68943;DHT22;60852;52.190;4.422;2023-12-28T06:51:18;12.09;75.18
68943;DHT22;60852;52.190;4.422;2023-12-28T06:53:45;12.09;75.26
68943;DHT22;60852;52.190;4.422;2023-12-28T06:56:11;12.05;75.21
68943;DHT22;60852;52.190;4.422;2023-12-28T06:58:36;12.05;75.09
68943;DHT22;60852;52.190;4.422;2023-12-28T07:01:05;12.04;75.12
68943;DHT22;60852;52.190;4.422;2023-12-28T07:03:31;12.04;75.05
68943;DHT22;60852;52.190;4.422;2023-12-28T07:06:01;11.98;75.07
68943;DHT22;60852;52.190;4.422;2023-12-28T07:08:26;12.01;75.05
68943;DHT22;60852;52.190;4.422;2023-12-28T07:10:52;11.98;74.93
68943;DHT22;60852;52.190;4.422;2023-12-28T07:13:17;12.04;75.03
68943;DHT22;60852;52.190;4.422;2023-12-28T07:15:43;12.06;75.02
68943;DHT22;60852;52.190;4.422;2023-12-28T07:18:08;12.04;75.15
68943;DHT22;60852;52.190;4.422;2023-12-28T07:20:34;12.02;75.28
68943;DHT22;60852;52.190;4.422;2023-12-28T07:22:59;11.99;75.48
68943;DHT22;60852;52.190;4.422;2023-12-28T07:25:25;12.05;75.36
68943;DHT22;60852;52.190;4.422;2023-12-28T07:27:50;12.04;75.39
68943;DHT22;60852;52.190;4.422;2023-12-28T07:30:16;11.99;75.82
68943;DHT22;60852;52.190;4.422;2023-12-28T07:32:43;11.97;75.85
68943;DHT22;60852;52.190;4.422;2023-12-28T07:35:08;11.94;75.61
68943;DHT22;60852;52.190;4.422;2023-12-28T07:37:34;11.97;75.47
68943;DHT22;60852;52.190;4.422;2023-12-28T07:40:00;11.98;75.41
68943;DHT22;60852;52.190;4.422;2023-12-28T07:42:26;11.99;75.39
68943;DHT22;60852;52.190;4.422;2023-12-28T07:44:51;12.02;75.20
68943;DHT22;60852;52.190;4.422;2023-12-28T07:47:16;12.04;75.17
68943;DHT22;60852;52.190;4.422;2023-12-28T07:49:42;11.98;75.36
68943;DHT22;60852;52.190;4.422;2023-12-28T07:52:08;11.99;75.19
68943;DHT22;60852;52.190;4.422;2023-12-28T07:54:33;12.02;75.10
68943;DHT22;60852;52.190;4.422;2023-12-28T07:56:59;12.06;75.04
68943;DHT22;60852;52.190;4.422;2023-12-28T07:59:25;12.08;75.00
68943;DHT22;60852;52.190;4.422;2023-12-28T08:01:50;12.06;74.94
68943;DHT22;60852;52.190;4.422;2023-12-28T08:04:16;12.14;74.90
68943;DHT22;60852;52.190;4.422;2023-12-28T08:06:42;12.09;75.03
68943;DHT22;60852;52.190;4.422;2023-12-28T08:09:07;12.11;75.02
68943;DHT22;60852;52.190;4.422;2023-12-28T08:11:34;12.18;74.96
68943;DHT22;60852;52.190;4.422;2023-12-28T08:13:59;12.18;74.68
68943;DHT22;60852;52.190;4.422;2023-12-28T08:16:25;12.17;74.84
68943;DHT22;60852;52.190;4.422;2023-12-28T08:18:51;12.21;74.70
68943;DHT22;60852;52.190;4.422;2023-12-28T08:21:17;12.12;74.76
68943;DHT22;60852;52.190;4.422;2023-12-28T08:23:43;12.08;74.87
68943;DHT22;60852;52.190;4.422;2023-12-28T08:26:08;12.15;74.71
68943;DHT22;60852;52.190;4.422;2023-12-28T08:28:34;12.21;74.65
68943;DHT22;60852;52.190;4.422;2023-12-28T08:30:59;12.11;74.98
68943;DHT22;60852;52.190;4.422;2023-12-28T08:33:25;12.08;74.92
68943;DHT22;60852;52.190;4.422;2023-12-28T08:35:51;12.17;74.88
68943;DHT22;60852;52.190;4.422;2023-12-28T08:38:16;12.15;74.85
68943;DHT22;60852;52.190;4.422;2023-12-28T08:40:42;12.14;74.93
68943;DHT22;60852;52.190;4.422;2023-12-28T08:43:09;12.11;74.99
68943;DHT22;60852;52.190;4.422;2023-12-28T08:45:35;12.11;75.18
68943;DHT22;60852;52.190;4.422;2023-12-28T08:48:01;12.05;75.21
68943;DHT22;60852;52.190;4.422;2023-12-28T08:50:26;11.99;75.49
68943;DHT22;60852;52.190;4.422;2023-12-28T08:52:52;12.08;75.43
68943;DHT22;60852;52.190;4.422;2023-12-28T08:55:17;12.06;75.40
68943;DHT22;60852;52.190;4.422;2023-12-28T08:57:46;12.08;75.56
68943;DHT22;60852;52.190;4.422;2023-12-28T09:00:12;12.02;75.84
68943;DHT22;60852;52.190;4.422;2023-12-28T09:02:40;11.98;76.15
68943;DHT22;60852;52.190;4.422;2023-12-28T09:05:06;11.94;76.30
68943;DHT22;60852;52.190;4.422;2023-12-28T09:07:31;12.01;76.17
68943;DHT22;60852;52.190;4.422;2023-12-28T09:09:57;12.04;75.97
68943;DHT22;60852;52.190;4.422;2023-12-28T09:12:22;12.11;75.87
68943;DHT22;60852;52.190;4.422;2023-12-28T09:14:48;12.14;75.70
68943;DHT22;60852;52.190;4.422;2023-12-28T09:17:13;12.15;75.54
68943;DHT22;60852;52.190;4.422;2023-12-28T09:19:39;12.18;75.29
68943;DHT22;60852;52.190;4.422;2023-12-28T09:22:04;12.24;75.17
68943;DHT22;60852;52.190;4.422;2023-12-28T09:24:30;12.24;74.97
68943;DHT22;60852;52.190;4.422;2023-12-28T09:26:56;12.25;74.83
68943;DHT22;60852;52.190;4.422;2023-12-28T09:29:21;12.29;74.77
68943;DHT22;60852;52.190;4.422;2023-12-28T09:31:46;12.28;74.70
68943;DHT22;60852;52.190;4.422;2023-12-28T09:34:12;12.25;74.85
68943;DHT22;60852;52.190;4.422;2023-12-28T09:36:37;12.24;74.94
68943;DHT22;60852;52.190;4.422;2023-12-28T09:39:03;12.22;75.08
68943;DHT22;60852;52.190;4.422;2023-12-28T09:41:34;12.19;75.22
68943;DHT22;60852;52.190;4.422;2023-12-28T09:44:13;12.22;75.46
68943;DHT22;60852;52.190;4.422;2023-12-28T09:46:43;12.17;75.90
68943;DHT22;60852;52.190;4.422;2023-12-28T09:49:10;12.12;76.13
68943;DHT22;60852;52.190;4.422;2023-12-28T09:51:36;11.97;76.69
68943;DHT22;60852;52.190;4.422;2023-12-28T09:54:05;11.98;76.99
68943;DHT22;60852;52.190;4.422;2023-12-28T09:56:32;11.94;77.23
68943;DHT22;60852;52.190;4.422;2023-12-28T09:58:58;11.85;77.84
68943;DHT22;60852;52.190;4.422;2023-12-28T10:01:24;11.82;78.23
68943;DHT22;60852;52.190;4.422;2023-12-28T10:03:50;11.80;78.51
68943;DHT22;60852;52.190;4.422;2023-12-28T10:06:16;11.75;78.92
68943;DHT22;60852;52.190;4.422;2023-12-28T10:08:45;11.68;79.21
68943;DHT22;60852;52.190;4.422;2023-12-28T10:11:11;11.73;79.07
68943;DHT22;60852;52.190;4.422;2023-12-28T10:13:37;11.74;77.91
68943;DHT22;60852;52.190;4.422;2023-12-28T10:16:03;11.90;77.18
68943;DHT22;60852;52.190;4.422;2023-12-28T10:18:28;11.99;76.59
68943;DHT22;60852;52.190;4.422;2023-12-28T10:20:55;12.08;76.05
68943;DHT22;60852;52.190;4.422;2023-12-28T10:23:21;12.11;75.65
68943;DHT22;60852;52.190;4.422;2023-12-28T10:25:47;12.18;75.28
68943;DHT22;60852;52.190;4.422;2023-12-28T10:28:13;12.18;74.83
68943;DHT22;60852;52.190;4.422;2023-12-28T10:30:39;12.21;74.61
68943;DHT22;60852;52.190;4.422;2023-12-28T10:33:08;12.18;74.51
68943;DHT22;60852;52.190;4.422;2023-12-28T10:35:33;12.24;74.56
68943;DHT22;60852;52.190;4.422;2023-12-28T10:38:04;12.17;74.34
68943;DHT22;60852;52.190;4.422;2023-12-28T10:40:29;12.24;74.31
68943;DHT22;60852;52.190;4.422;2023-12-28T10:43:04;12.25;74.10
68943;DHT22;60852;52.190;4.422;2023-12-28T10:45:32;12.33;74.22
68943;DHT22;60852;52.190;4.422;2023-12-28T10:48:07;12.28;73.97
68943;DHT22;60852;52.190;4.422;2023-12-28T10:50:40;12.36;73.78
68943;DHT22;60852;52.190;4.422;2023-12-28T10:53:38;12.29;73.78
68943;DHT22;60852;52.190;4.422;2023-12-28T11:01:31;12.30;73.72
68943;DHT22;60852;52.190;4.422;2023-12-28T11:04:04;12.45;73.63
68943;DHT22;60852;52.190;4.422;2023-12-28T11:06:35;12.29;73.60
68943;DHT22;60852;52.190;4.422;2023-12-28T11:09:02;12.29;73.71
68943;DHT22;60852;52.190;4.422;2023-12-28T11:11:29;12.35;73.58
68943;DHT22;60852;52.190;4.422;2023-12-28T11:13:56;12.32;73.60
68943;DHT22;60852;52.190;4.422;2023-12-28T11:16:22;12.35;73.64
68943;DHT22;60852;52.190;4.422;2023-12-28T11:18:49;12.36;73.68
68943;DHT22;60852;52.190;4.422;2023-12-28T11:21:16;12.38;73.56
68943;DHT22;60852;52.190;4.422;2023-12-28T11:23:43;12.39;73.91
68943;DHT22;60852;52.190;4.422;2023-12-28T11:26:19;12.30;74.08
68943;DHT22;60852;52.190;4.422;2023-12-28T11:28:45;12.30;74.81
68943;DHT22;60852;52.190;4.422;2023-12-28T11:31:14;12.30;74.92
68943;DHT22;60852;52.190;4.422;2023-12-28T11:33:47;12.18;75.10
68943;DHT22;60852;52.190;4.422;2023-12-28T11:36:33;12.15;75.26
68943;DHT22;60852;52.190;4.422;2023-12-28T11:39:06;12.09;75.10
68943;DHT22;60852;52.190;4.422;2023-12-28T11:41:33;12.17;74.97
68943;DHT22;60852;52.190;4.422;2023-12-28T11:44:05;12.18;74.89
68943;DHT22;60852;52.190;4.422;2023-12-28T11:46:32;12.21;74.96
68943;DHT22;60852;52.190;4.422;2023-12-28T11:49:08;12.22;74.58
68943;DHT22;60852;52.190;4.422;2023-12-28T11:51:36;12.25;74.07
68943;DHT22;60852;52.190;4.422;2023-12-28T11:54:03;12.24;73.86
68943;DHT22;60852;52.190;4.422;2023-12-28T11:56:32;12.26;73.85
68943;DHT22;60852;52.190;4.422;2023-12-28T11:59:00;12.38;73.61
68943;DHT22;60852;52.190;4.422;2023-12-28T12:01:25;12.39;73.19
68943;DHT22;60852;52.190;4.422;2023-12-28T12:03:51;12.36;73.24
68943;DHT22;60852;52.190;4.422;2023-12-28T12:06:16;12.42;73.19
68943;DHT22;60852;52.190;4.422;2023-12-28T12:08:48;12.42;73.29
68943;DHT22;60852;52.190;4.422;2023-12-28T12:11:16;12.35;73.16
68943;DHT22;60852;52.190;4.422;2023-12-28T12:13:43;12.46;73.03
68943;DHT22;60852;52.190;4.422;2023-12-28T12:16:09;12.43;72.87
68943;DHT22;60852;52.190;4.422;2023-12-28T12:18:35;12.55;72.66
68943;DHT22;60852;52.190;4.422;2023-12-28T12:21:02;12.57;72.49
68943;DHT22;60852;52.190;4.422;2023-12-28T12:23:28;12.52;72.27
68943;DHT22;60852;52.190;4.422;2023-12-28T12:25:53;12.56;72.27
68943;DHT22;60852;52.190;4.422;2023-12-28T12:28:19;12.46;72.06
68943;DHT22;60852;52.190;4.422;2023-12-28T12:30:55;12.38;72.35
68943;DHT22;60852;52.190;4.422;2023-12-28T12:33:25;12.40;72.41
68943;DHT22;60852;52.190;4.422;2023-12-28T12:35:52;12.38;72.15
68943;DHT22;60852;52.190;4.422;2023-12-28T12:38:17;12.40;72.41
68943;DHT22;60852;52.190;4.422;2023-12-28T12:40:43;12.46;72.47
68943;DHT22;60852;52.190;4.422;2023-12-28T12:43:09;12.40;72.51
68943;DHT22;60852;52.190;4.422;2023-12-28T12:45:36;12.40;72.30
68943;DHT22;60852;52.190;4.422;2023-12-28T12:48:02;12.40;72.31
68943;DHT22;60852;52.190;4.422;2023-12-28T12:50:29;12.49;72.38
68943;DHT22;60852;52.190;4.422;2023-12-28T12:52:56;12.48;72.14
68943;DHT22;60852;52.190;4.422;2023-12-28T12:55:22;12.45;72.21
68943;DHT22;60852;52.190;4.422;2023-12-28T12:57:48;12.50;72.26
68943;DHT22;60852;52.190;4.422;2023-12-28T13:00:14;12.55;71.94
68943;DHT22;60852;52.190;4.422;2023-12-28T13:02:39;12.59;71.81
68943;DHT22;60852;52.190;4.422;2023-12-28T13:05:05;12.60;71.82
68943;DHT22;60852;52.190;4.422;2023-12-28T13:07:31;12.60;71.64
68943;DHT22;60852;52.190;4.422;2023-12-28T13:09:57;12.63;71.64
68943;DHT22;60852;52.190;4.422;2023-12-28T13:12:22;12.61;71.43
68943;DHT22;60852;52.190;4.422;2023-12-28T13:14:50;12.69;71.32
68943;DHT22;60852;52.190;4.422;2023-12-28T13:17:15;12.69;71.40
68943;DHT22;60852;52.190;4.422;2023-12-28T13:19:42;12.67;71.48
68943;DHT22;60852;52.190;4.422;2023-12-28T13:22:07;12.66;71.67
68943;DHT22;60852;52.190;4.422;2023-12-28T13:24:33;12.50;72.05
68943;DHT22;60852;52.190;4.422;2023-12-28T13:26:58;12.50;72.41
68943;DHT22;60852;52.190;4.422;2023-12-28T13:29:24;12.42;72.87
68943;DHT22;60852;52.190;4.422;2023-12-28T13:31:49;12.40;73.33
68943;DHT22;60852;52.190;4.422;2023-12-28T13:34:16;12.42;73.93
68943;DHT22;60852;52.190;4.422;2023-12-28T13:36:42;12.29;74.67
68943;DHT22;60852;52.190;4.422;2023-12-28T13:39:07;12.18;75.22
68943;DHT22;60852;52.190;4.422;2023-12-28T13:41:37;12.05;75.83
68943;DHT22;60852;52.190;4.422;2023-12-28T13:44:02;12.05;76.43
68943;DHT22;60852;52.190;4.422;2023-12-28T13:46:30;12.06;76.57
68943;DHT22;60852;52.190;4.422;2023-12-28T13:48:55;12.02;76.59
68943;DHT22;60852;52.190;4.422;2023-12-28T13:51:22;11.98;76.77
68943;DHT22;60852;52.190;4.422;2023-12-28T13:53:48;11.97;76.79
68943;DHT22;60852;52.190;4.422;2023-12-28T13:56:13;11.87;77.13
68943;DHT22;60852;52.190;4.422;2023-12-28T13:58:39;11.92;77.02
68943;DHT22;60852;52.190;4.422;2023-12-28T14:01:04;11.97;76.84
68943;DHT22;60852;52.190;4.422;2023-12-28T14:03:30;11.95;76.84
68943;DHT22;60852;52.190;4.422;2023-12-28T14:05:55;11.97;76.76
68943;DHT22;60852;52.190;4.422;2023-12-28T14:08:21;11.99;76.57
68943;DHT22;60852;52.190;4.422;2023-12-28T14:10:46;12.01;76.61
68943;DHT22;60852;52.190;4.422;2023-12-28T14:13:12;11.99;76.59
68943;DHT22;60852;52.190;4.422;2023-12-28T14:15:37;12.01;76.49
68943;DHT22;60852;52.190;4.422;2023-12-28T14:18:04;11.99;76.65
68943;DHT22;60852;52.190;4.422;2023-12-28T14:20:31;11.98;76.51
68943;DHT22;60852;52.190;4.422;2023-12-28T14:22:56;11.94;76.74
68943;DHT22;60852;52.190;4.422;2023-12-28T14:25:22;11.94;76.83
68943;DHT22;60852;52.190;4.422;2023-12-28T14:27:48;11.91;76.95
68943;DHT22;60852;52.190;4.422;2023-12-28T14:30:14;11.94;76.88
68943;DHT22;60852;52.190;4.422;2023-12-28T14:32:40;11.91;76.89
68943;DHT22;60852;52.190;4.422;2023-12-28T14:35:06;11.92;76.92
68943;DHT22;60852;52.190;4.422;2023-12-28T14:37:31;11.92;77.08
68943;DHT22;60852;52.190;4.422;2023-12-28T14:39:57;11.99;76.97
68943;DHT22;60852;52.190;4.422;2023-12-28T14:42:22;12.04;76.86
68943;DHT22;60852;52.190;4.422;2023-12-28T14:44:48;11.92;77.06
68943;DHT22;60852;52.190;4.422;2023-12-28T14:47:15;11.91;77.20
68943;DHT22;60852;52.190;4.422;2023-12-28T14:49:41;11.90;77.10
68943;DHT22;60852;52.190;4.422;2023-12-28T14:52:06;11.95;76.93
68943;DHT22;60852;52.190;4.422;2023-12-28T14:54:32;11.92;76.81
68943;DHT22;60852;52.190;4.422;2023-12-28T14:56:57;11.82;76.65
68943;DHT22;60852;52.190;4.422;2023-12-28T14:59:22;11.87;76.70
68943;DHT22;60852;52.190;4.422;2023-12-28T15:01:49;11.87;76.40
68943;DHT22;60852;52.190;4.422;2023-12-28T15:04:14;11.90;76.16
68943;DHT22;60852;52.190;4.422;2023-12-28T15:06:40;11.97;75.84
68943;DHT22;60852;52.190;4.422;2023-12-28T15:09:05;11.99;75.42
68943;DHT22;60852;52.190;4.422;2023-12-28T15:11:31;11.99;75.09
68943;DHT22;60852;52.190;4.422;2023-12-28T15:13:57;11.99;74.86
68943;DHT22;60852;52.190;4.422;2023-12-28T15:16:23;12.06;74.60
68943;DHT22;60852;52.190;4.422;2023-12-28T15:18:48;12.06;74.16
68943;DHT22;60852;52.190;4.422;2023-12-28T15:21:14;12.12;73.99
68943;DHT22;60852;52.190;4.422;2023-12-28T15:23:40;12.11;73.65
68943;DHT22;60852;52.190;4.422;2023-12-28T15:26:05;12.12;73.44
68943;DHT22;60852;52.190;4.422;2023-12-28T15:28:32;12.11;73.28
68943;DHT22;60852;52.190;4.422;2023-12-28T15:30:57;12.21;73.00